sensor_id;sensor_type;location;lat;lon;timestamp;P1;durP1;ratioP1;P2;durP2;ratioP2
179;SDS011;78;48.788;9.010;2023-04-05T00:01:08;28.30;;;9.37;;
179;SDS011;78;48.788;9.010;2023-04-05T00:03:36;27.30;;;9.73;;
179;SDS011;78;48.788;9.010;2023-04-05T00:06:04;28.47;;;9.70;;
179;SDS011;78;48.788;9.010;2023-04-05T00:08:30;27.97;;;9.90;;
179;SDS011;78;48.788;9.010;2023-04-05T00:10:57;29.77;;;10.93;;
179;SDS011;78;48.788;9.010;2023-04-05T00:13:24;30.60;;;9.77;;
179;SDS011;78;48.788;9.010;2023-04-05T00:15:50;27.70;;;9.40;;
179;SDS011;78;48.788;9.010;2023-04-05T00:18:17;30.43;;;10.17;;
179;SDS011;78;48.788;9.010;2023-04-05T00:20:47;27.53;;;10.30;;
179;SDS011;78;48.788;9.010;2023-04-05T00:23:13;30.73;;;10.20;;
179;SDS011;78;48.788;9.010;2023-04-05T00:25:41;27.13;;;9.63;;
179;SDS011;78;48.788;9.010;2023-04-05T00:28:08;27.27;;;9.90;;
179;SDS011;78;48.788;9.010;2023-04-05T00:30:34;28.10;;;9.90;;
179;SDS011;78;48.788;9.010;2023-04-05T00:33:00;28.50;;;9.10;;
179;SDS011;78;48.788;9.010;2023-04-05T00:35:27;31.37;;;10.73;;
179;SDS011;78;48.788;9.010;2023-04-05T00:37:54;28.07;;;9.60;;
179;SDS011;78;48.788;9.010;2023-04-05T00:40:20;25.93;;;9.10;;
179;SDS011;78;48.788;9.010;2023-04-05T00:42:46;28.30;;;10.20;;
179;SDS011;78;48.788;9.010;2023-04-05T00:45:13;34.47;;;11.10;;
179;SDS011;78;48.788;9.010;2023-04-05T00:47:42;26.90;;;9.73;;
179;SDS011;78;48.788;9.010;2023-04-05T00:50:09;27.90;;;9.90;;
179;SDS011;78;48.788;9.010;2023-04-05T00:52:36;26.90;;;10.20;;
179;SDS011;78;48.788;9.010;2023-04-05T00:55:03;29.90;;;10.40;;
179;SDS011;78;48.788;9.010;2023-04-05T00:57:33;27.70;;;10.20;;
179;SDS011;78;48.788;9.010;2023-04-05T01:00:03;28.67;;;9.93;;
179;SDS011;78;48.788;9.010;2023-04-05T01:02:54;27.73;;;9.70;;
179;SDS011;78;48.788;9.010;2023-04-05T01:10:43;25.83;;;9.13;;
179;SDS011;78;48.788;9.010;2023-04-05T01:13:11;30.63;;;10.17;;
179;SDS011;78;48.788;9.010;2023-04-05T01:15:37;26.80;;;9.43;;
179;SDS011;78;48.788;9.010;2023-04-05T01:18:04;29.50;;;10.30;;
179;SDS011;78;48.788;9.010;2023-04-05T01:20:33;27.57;;;9.97;;
179;SDS011;78;48.788;9.010;2023-04-05T01:23:11;29.43;;;10.00;;
179;SDS011;78;48.788;9.010;2023-04-05T01:26:03;29.00;;;9.50;;
179;SDS011;78;48.788;9.010;2023-04-05T01:31:40;27.50;;;9.33;;
179;SDS011;78;48.788;9.010;2023-04-05T01:34:21;28.40;;;9.77;;
179;SDS011;78;48.788;9.010;2023-04-05T01:36:53;28.87;;;10.07;;
179;SDS011;78;48.788;9.010;2023-04-05T01:39:21;33.00;;;9.90;;
179;SDS011;78;48.788;9.010;2023-04-05T01:41:48;29.20;;;10.20;;
179;SDS011;78;48.788;9.010;2023-04-05T01:44:14;28.87;;;10.43;;
179;SDS011;78;48.788;9.010;2023-04-05T01:46:41;25.93;;;9.57;;
179;SDS011;78;48.788;9.010;2023-04-05T01:49:07;29.90;;;11.17;;
179;SDS011;78;48.788;9.010;2023-04-05T01:51:34;27.33;;;10.17;;
179;SDS011;78;48.788;9.010;2023-04-05T01:54:00;28.77;;;10.20;;
179;SDS011;78;48.788;9.010;2023-04-05T01:56:26;32.30;;;10.47;;
179;SDS011;78;48.788;9.010;2023-04-05T01:58:54;28.73;;;10.40;;
179;SDS011;78;48.788;9.010;2023-04-05T02:01:20;31.27;;;10.10;;
179;SDS011;78;48.788;9.010;2023-04-05T02:03:47;29.30;;;9.87;;
179;SDS011;78;48.788;9.010;2023-04-05T02:06:13;28.90;;;10.70;;
179;SDS011;78;48.788;9.010;2023-04-05T02:08:39;29.93;;;10.73;;
179;SDS011;78;48.788;9.010;2023-04-05T02:11:05;27.30;;;10.30;;
179;SDS011;78;48.788;9.010;2023-04-05T02:13:32;27.67;;;10.47;;
179;SDS011;78;48.788;9.010;2023-04-05T02:15:58;31.00;;;11.63;;
179;SDS011;78;48.788;9.010;2023-04-05T02:18:24;30.20;;;10.10;;
179;SDS011;78;48.788;9.010;2023-04-05T02:21:04;27.70;;;9.83;;
179;SDS011;78;48.788;9.010;2023-04-05T02:23:31;26.70;;;9.80;;
179;SDS011;78;48.788;9.010;2023-04-05T02:25:58;27.10;;;9.93;;
179;SDS011;78;48.788;9.010;2023-04-05T02:28:24;30.80;;;11.00;;
179;SDS011;78;48.788;9.010;2023-04-05T02:30:50;28.27;;;10.40;;
179;SDS011;78;48.788;9.010;2023-04-05T02:33:16;28.13;;;9.93;;
179;SDS011;78;48.788;9.010;2023-04-05T02:35:43;33.13;;;11.00;;
179;SDS011;78;48.788;9.010;2023-04-05T02:38:09;28.03;;;10.00;;
179;SDS011;78;48.788;9.010;2023-04-05T02:40:35;28.30;;;9.97;;
179;SDS011;78;48.788;9.010;2023-04-05T02:43:05;28.03;;;10.33;;
179;SDS011;78;48.788;9.010;2023-04-05T02:45:32;36.60;;;10.80;;
179;SDS011;78;48.788;9.010;2023-04-05T02:47:58;28.00;;;9.57;;
179;SDS011;78;48.788;9.010;2023-04-05T02:50:24;28.70;;;10.27;;
179;SDS011;78;48.788;9.010;2023-04-05T02:52:51;27.87;;;9.70;;
179;SDS011;78;48.788;9.010;2023-04-05T02:55:17;28.73;;;9.93;;
179;SDS011;78;48.788;9.010;2023-04-05T02:57:44;28.87;;;9.63;;
179;SDS011;78;48.788;9.010;2023-04-05T03:00:10;26.60;;;9.60;;
179;SDS011;78;48.788;9.010;2023-04-05T03:02:37;29.10;;;9.60;;
179;SDS011;78;48.788;9.010;2023-04-05T03:05:06;27.60;;;9.50;;
179;SDS011;78;48.788;9.010;2023-04-05T03:07:33;31.37;;;10.43;;
179;SDS011;78;48.788;9.010;2023-04-05T03:09:59;28.63;;;10.20;;
179;SDS011;78;48.788;9.010;2023-04-05T03:12:26;27.30;;;9.90;;
179;SDS011;78;48.788;9.010;2023-04-05T03:14:52;30.80;;;10.30;;
179;SDS011;78;48.788;9.010;2023-04-05T03:17:19;28.37;;;10.53;;
179;SDS011;78;48.788;9.010;2023-04-05T03:19:46;28.90;;;10.40;;
179;SDS011;78;48.788;9.010;2023-04-05T03:22:12;30.57;;;9.70;;
179;SDS011;78;48.788;9.010;2023-04-05T03:24:38;30.17;;;10.23;;
179;SDS011;78;48.788;9.010;2023-04-05T03:27:06;28.33;;;10.07;;
179;SDS011;78;48.788;9.010;2023-04-05T03:29:33;28.47;;;9.70;;
179;SDS011;78;48.788;9.010;2023-04-05T03:31:59;29.07;;;10.03;;
179;SDS011;78;48.788;9.010;2023-04-05T03:34:27;33.13;;;10.37;;
179;SDS011;78;48.788;9.010;2023-04-05T03:36:53;27.80;;;9.77;;
179;SDS011;78;48.788;9.010;2023-04-05T03:39:20;28.33;;;10.00;;
179;SDS011;78;48.788;9.010;2023-04-05T03:41:46;28.70;;;9.63;;
179;SDS011;78;48.788;9.010;2023-04-05T03:44:12;27.00;;;9.60;;
179;SDS011;78;48.788;9.010;2023-04-05T03:46:38;32.10;;;10.43;;
179;SDS011;78;48.788;9.010;2023-04-05T03:49:04;26.30;;;9.17;;
179;SDS011;78;48.788;9.010;2023-04-05T03:51:31;26.90;;;9.30;;
179;SDS011;78;48.788;9.010;2023-04-05T03:53:58;27.53;;;9.57;;
179;SDS011;78;48.788;9.010;2023-04-05T03:56:24;33.27;;;10.50;;
179;SDS011;78;48.788;9.010;2023-04-05T03:58:51;29.70;;;10.53;;
179;SDS011;78;48.788;9.010;2023-04-05T04:01:18;32.30;;;10.50;;
179;SDS011;78;48.788;9.010;2023-04-05T04:03:44;30.23;;;10.00;;
179;SDS011;78;48.788;9.010;2023-04-05T04:06:11;27.30;;;9.80;;
179;SDS011;78;48.788;9.010;2023-04-05T04:08:37;35.50;;;10.37;;
179;SDS011;78;48.788;9.010;2023-04-05T04:11:04;25.37;;;9.20;;
179;SDS011;78;48.788;9.010;2023-04-05T04:13:30;25.03;;;9.30;;
179;SDS011;78;48.788;9.010;2023-04-05T04:15:57;26.40;;;9.30;;
179;SDS011;78;48.788;9.010;2023-04-05T04:18:23;31.00;;;10.67;;
179;SDS011;78;48.788;9.010;2023-04-05T04:20:49;26.60;;;9.93;;
179;SDS011;78;48.788;9.010;2023-04-05T04:23:16;28.07;;;10.50;;
179;SDS011;78;48.788;9.010;2023-04-05T04:25:42;25.67;;;9.53;;
179;SDS011;78;48.788;9.010;2023-04-05T04:28:10;28.93;;;10.10;;
179;SDS011;78;48.788;9.010;2023-04-05T04:30:36;28.60;;;9.50;;
179;SDS011;78;48.788;9.010;2023-04-05T04:33:03;29.43;;;10.07;;
179;SDS011;78;48.788;9.010;2023-04-05T04:35:30;26.90;;;9.40;;
179;SDS011;78;48.788;9.010;2023-04-05T04:38:02;32.23;;;10.53;;
179;SDS011;78;48.788;9.010;2023-04-05T04:40:35;29.97;;;10.60;;
179;SDS011;78;48.788;9.010;2023-04-05T04:43:09;30.27;;;10.07;;
179;SDS011;78;48.788;9.010;2023-04-05T04:45:50;27.17;;;9.40;;
179;SDS011;78;48.788;9.010;2023-04-05T04:48:18;28.80;;;9.93;;
179;SDS011;78;48.788;9.010;2023-04-05T04:50:45;27.50;;;9.57;;
179;SDS011;78;48.788;9.010;2023-04-05T04:53:12;28.30;;;9.30;;
179;SDS011;78;48.788;9.010;2023-04-05T04:55:41;27.83;;;9.80;;
179;SDS011;78;48.788;9.010;2023-04-05T04:58:08;32.03;;;10.43;;
179;SDS011;78;48.788;9.010;2023-04-05T05:00:39;28.60;;;10.50;;
179;SDS011;78;48.788;9.010;2023-04-05T05:03:06;33.60;;;10.20;;
179;SDS011;78;48.788;9.010;2023-04-05T05:05:33;28.60;;;9.97;;
179;SDS011;78;48.788;9.010;2023-04-05T05:07:59;36.53;;;10.57;;
179;SDS011;78;48.788;9.010;2023-04-05T05:10:26;26.23;;;10.00;;
179;SDS011;78;48.788;9.010;2023-04-05T05:12:52;30.40;;;10.67;;
179;SDS011;78;48.788;9.010;2023-04-05T05:15:18;31.10;;;10.43;;
179;SDS011;78;48.788;9.010;2023-04-05T05:17:45;31.27;;;11.07;;
179;SDS011;78;48.788;9.010;2023-04-05T05:20:11;28.70;;;10.33;;
179;SDS011;78;48.788;9.010;2023-04-05T05:22:37;31.40;;;11.20;;
179;SDS011;78;48.788;9.010;2023-04-05T05:25:06;28.90;;;10.90;;
179;SDS011;78;48.788;9.010;2023-04-05T05:27:34;29.10;;;11.00;;
179;SDS011;78;48.788;9.010;2023-04-05T05:30:00;33.63;;;11.30;;
179;SDS011;78;48.788;9.010;2023-04-05T05:32:27;30.47;;;10.47;;
179;SDS011;78;48.788;9.010;2023-04-05T05:34:53;29.47;;;10.90;;
179;SDS011;78;48.788;9.010;2023-04-05T05:37:20;28.90;;;10.20;;
179;SDS011;78;48.788;9.010;2023-04-05T05:39:47;30.13;;;10.77;;
179;SDS011;78;48.788;9.010;2023-04-05T05:42:13;32.30;;;11.40;;
179;SDS011;78;48.788;9.010;2023-04-05T05:44:40;34.20;;;11.23;;
179;SDS011;78;48.788;9.010;2023-04-05T05:47:06;32.50;;;12.13;;
179;SDS011;78;48.788;9.010;2023-04-05T05:49:34;32.37;;;11.67;;
179;SDS011;78;48.788;9.010;2023-04-05T05:52:01;31.67;;;11.63;;
179;SDS011;78;48.788;9.010;2023-04-05T05:54:27;28.97;;;11.00;;
179;SDS011;78;48.788;9.010;2023-04-05T05:56:54;30.83;;;10.93;;
179;SDS011;78;48.788;9.010;2023-04-05T05:59:21;31.27;;;11.47;;
179;SDS011;78;48.788;9.010;2023-04-05T06:01:47;31.57;;;11.53;;
179;SDS011;78;48.788;9.010;2023-04-05T06:04:15;36.33;;;11.20;;
179;SDS011;78;48.788;9.010;2023-04-05T06:06:41;34.67;;;12.47;;
179;SDS011;78;48.788;9.010;2023-04-05T06:09:10;38.10;;;11.90;;
179;SDS011;78;48.788;9.010;2023-04-05T06:11:37;30.13;;;12.20;;
179;SDS011;78;48.788;9.010;2023-04-05T06:14:03;33.13;;;11.40;;
179;SDS011;78;48.788;9.010;2023-04-05T06:16:30;32.13;;;11.63;;
179;SDS011;78;48.788;9.010;2023-04-05T06:18:56;38.10;;;13.07;;
179;SDS011;78;48.788;9.010;2023-04-05T06:21:23;31.57;;;12.37;;
179;SDS011;78;48.788;9.010;2023-04-05T06:23:49;34.33;;;12.00;;
179;SDS011;78;48.788;9.010;2023-04-05T06:26:19;36.30;;;12.50;;
179;SDS011;78;48.788;9.010;2023-04-05T06:28:47;34.57;;;12.60;;
179;SDS011;78;48.788;9.010;2023-04-05T06:31:14;36.97;;;13.10;;
179;SDS011;78;48.788;9.010;2023-04-05T06:33:40;33.40;;;12.20;;
179;SDS011;78;48.788;9.010;2023-04-05T06:36:06;43.47;;;13.23;;
179;SDS011;78;48.788;9.010;2023-04-05T06:38:32;42.17;;;12.60;;
179;SDS011;78;48.788;9.010;2023-04-05T06:40:59;33.67;;;12.27;;
179;SDS011;78;48.788;9.010;2023-04-05T06:43:25;36.77;;;13.27;;
179;SDS011;78;48.788;9.010;2023-04-05T06:45:52;33.87;;;13.37;;
179;SDS011;78;48.788;9.010;2023-04-05T06:48:20;36.20;;;13.20;;
179;SDS011;78;48.788;9.010;2023-04-05T06:50:55;38.43;;;13.57;;
179;SDS011;78;48.788;9.010;2023-04-05T06:53:21;35.77;;;13.23;;
179;SDS011;78;48.788;9.010;2023-04-05T06:55:49;36.00;;;14.70;;
179;SDS011;78;48.788;9.010;2023-04-05T06:58:16;43.43;;;15.97;;
179;SDS011;78;48.788;9.010;2023-04-05T07:00:42;41.53;;;15.90;;
179;SDS011;78;48.788;9.010;2023-04-05T07:03:09;37.43;;;15.67;;
179;SDS011;78;48.788;9.010;2023-04-05T07:05:35;39.23;;;16.10;;
179;SDS011;78;48.788;9.010;2023-04-05T07:08:01;34.70;;;14.07;;
179;SDS011;78;48.788;9.010;2023-04-05T07:10:28;41.07;;;15.63;;
179;SDS011;78;48.788;9.010;2023-04-05T07:12:54;39.37;;;16.10;;
179;SDS011;78;48.788;9.010;2023-04-05T07:15:20;42.30;;;15.57;;
179;SDS011;78;48.788;9.010;2023-04-05T07:17:46;39.60;;;14.80;;
179;SDS011;78;48.788;9.010;2023-04-05T07:20:12;44.00;;;16.27;;
179;SDS011;78;48.788;9.010;2023-04-05T07:22:38;42.73;;;16.03;;
179;SDS011;78;48.788;9.010;2023-04-05T07:25:04;45.47;;;16.00;;
179;SDS011;78;48.788;9.010;2023-04-05T07:27:33;40.73;;;16.17;;
179;SDS011;78;48.788;9.010;2023-04-05T07:29:59;37.40;;;14.90;;
179;SDS011;78;48.788;9.010;2023-04-05T07:32:25;41.40;;;16.47;;
179;SDS011;78;48.788;9.010;2023-04-05T07:34:51;37.70;;;15.70;;
179;SDS011;78;48.788;9.010;2023-04-05T07:37:17;39.13;;;15.50;;
179;SDS011;78;48.788;9.010;2023-04-05T07:39:43;41.37;;;16.50;;
179;SDS011;78;48.788;9.010;2023-04-05T07:42:09;39.00;;;16.20;;
179;SDS011;78;48.788;9.010;2023-04-05T07:44:35;36.60;;;14.93;;
179;SDS011;78;48.788;9.010;2023-04-05T07:47:01;35.17;;;14.10;;
179;SDS011;78;48.788;9.010;2023-04-05T07:49:28;38.33;;;15.50;;
179;SDS011;78;48.788;9.010;2023-04-05T07:51:54;38.10;;;15.30;;
179;SDS011;78;48.788;9.010;2023-04-05T07:54:20;46.13;;;15.13;;
179;SDS011;78;48.788;9.010;2023-04-05T07:56:46;38.77;;;15.33;;
179;SDS011;78;48.788;9.010;2023-04-05T07:59:16;41.33;;;14.47;;
179;SDS011;78;48.788;9.010;2023-04-05T08:01:42;35.97;;;14.37;;
179;SDS011;78;48.788;9.010;2023-04-05T08:04:08;40.13;;;14.53;;
179;SDS011;78;48.788;9.010;2023-04-05T08:06:34;37.90;;;14.77;;
179;SDS011;78;48.788;9.010;2023-04-05T08:09:00;33.23;;;13.63;;
179;SDS011;78;48.788;9.010;2023-04-05T08:11:29;35.00;;;13.80;;
179;SDS011;78;48.788;9.010;2023-04-05T08:13:56;31.33;;;11.60;;
179;SDS011;78;48.788;9.010;2023-04-05T08:16:22;31.50;;;12.00;;
179;SDS011;78;48.788;9.010;2023-04-05T08:18:48;35.00;;;12.30;;
179;SDS011;78;48.788;9.010;2023-04-05T08:21:14;31.23;;;11.13;;
179;SDS011;78;48.788;9.010;2023-04-05T08:23:40;35.60;;;13.20;;
179;SDS011;78;48.788;9.010;2023-04-05T08:26:06;33.60;;;13.17;;
179;SDS011;78;48.788;9.010;2023-04-05T08:28:32;32.50;;;12.40;;
179;SDS011;78;48.788;9.010;2023-04-05T08:30:58;29.50;;;10.37;;
179;SDS011;78;48.788;9.010;2023-04-05T08:33:24;33.00;;;11.70;;
179;SDS011;78;48.788;9.010;2023-04-05T08:35:52;28.70;;;11.37;;
179;SDS011;78;48.788;9.010;2023-04-05T08:38:18;30.83;;;10.90;;
179;SDS011;78;48.788;9.010;2023-04-05T08:40:44;29.40;;;11.60;;
179;SDS011;78;48.788;9.010;2023-04-05T08:45:48;32.90;;;12.03;;
179;SDS011;78;48.788;9.010;2023-04-05T08:48:14;30.00;;;12.07;;
179;SDS011;78;48.788;9.010;2023-04-05T08:50:41;30.43;;;12.30;;
179;SDS011;78;48.788;9.010;2023-04-05T08:53:07;31.70;;;12.43;;
179;SDS011;78;48.788;9.010;2023-04-05T08:55:36;36.17;;;12.07;;
179;SDS011;78;48.788;9.010;2023-04-05T08:58:03;30.97;;;11.40;;
179;SDS011;78;48.788;9.010;2023-04-05T09:00:32;31.80;;;12.03;;
179;SDS011;78;48.788;9.010;2023-04-05T09:02:58;29.63;;;12.13;;
179;SDS011;78;48.788;9.010;2023-04-05T09:05:26;32.23;;;10.70;;
179;SDS011;78;48.788;9.010;2023-04-05T09:07:53;29.67;;;11.30;;
179;SDS011;78;48.788;9.010;2023-04-05T09:10:21;32.70;;;10.97;;
179;SDS011;78;48.788;9.010;2023-04-05T09:12:48;31.77;;;11.00;;
179;SDS011;78;48.788;9.010;2023-04-05T09:15:14;28.10;;;10.93;;
179;SDS011;78;48.788;9.010;2023-04-05T09:17:41;30.47;;;11.07;;
179;SDS011;78;48.788;9.010;2023-04-05T09:20:08;31.50;;;10.93;;
179;SDS011;78;48.788;9.010;2023-04-05T09:22:43;25.33;;;9.80;;
179;SDS011;78;48.788;9.010;2023-04-05T09:25:10;28.73;;;10.60;;
179;SDS011;78;48.788;9.010;2023-04-05T09:27:52;29.30;;;10.90;;
179;SDS011;78;48.788;9.010;2023-04-05T09:30:20;28.70;;;10.27;;
179;SDS011;78;48.788;9.010;2023-04-05T09:32:46;25.93;;;10.00;;
179;SDS011;78;48.788;9.010;2023-04-05T09:35:17;33.57;;;11.60;;
179;SDS011;78;48.788;9.010;2023-04-05T09:37:56;32.27;;;10.87;;
179;SDS011;78;48.788;9.010;2023-04-05T09:40:23;29.03;;;11.20;;
179;SDS011;78;48.788;9.010;2023-04-05T09:42:49;29.70;;;11.83;;
179;SDS011;78;48.788;9.010;2023-04-05T09:45:17;27.20;;;10.60;;
179;SDS011;78;48.788;9.010;2023-04-05T09:47:52;29.57;;;10.60;;
179;SDS011;78;48.788;9.010;2023-04-05T09:50:18;26.57;;;10.50;;
179;SDS011;78;48.788;9.010;2023-04-05T09:52:45;27.10;;;11.20;;
179;SDS011;78;48.788;9.010;2023-04-05T09:55:12;27.73;;;10.53;;
179;SDS011;78;48.788;9.010;2023-04-05T09:57:39;28.83;;;11.20;;
179;SDS011;78;48.788;9.010;2023-04-05T10:00:05;26.30;;;10.60;;
179;SDS011;78;48.788;9.010;2023-04-05T10:02:38;26.43;;;10.67;;
179;SDS011;78;48.788;9.010;2023-04-05T10:05:05;29.47;;;10.63;;
179;SDS011;78;48.788;9.010;2023-04-05T10:07:31;29.83;;;10.83;;
179;SDS011;78;48.788;9.010;2023-04-05T10:09:57;27.70;;;10.60;;
179;SDS011;78;48.788;9.010;2023-04-05T10:12:24;27.83;;;10.43;;
179;SDS011;78;48.788;9.010;2023-04-05T10:14:54;28.13;;;11.70;;
179;SDS011;78;48.788;9.010;2023-04-05T10:17:27;29.10;;;10.70;;
179;SDS011;78;48.788;9.010;2023-04-05T10:20:00;29.00;;;11.10;;
179;SDS011;78;48.788;9.010;2023-04-05T10:27:43;30.43;;;10.83;;
179;SDS011;78;48.788;9.010;2023-04-05T10:30:11;27.90;;;10.60;;
179;SDS011;78;48.788;9.010;2023-04-05T10:35:07;24.37;;;9.73;;
179;SDS011;78;48.788;9.010;2023-04-05T10:37:38;26.90;;;9.50;;
179;SDS011;78;48.788;9.010;2023-04-05T10:40:07;28.20;;;9.40;;
179;SDS011;78;48.788;9.010;2023-04-05T10:42:38;24.87;;;9.53;;
179;SDS011;78;48.788;9.010;2023-04-05T10:45:05;23.77;;;9.60;;
179;SDS011;78;48.788;9.010;2023-04-05T10:47:35;23.40;;;9.07;;
179;SDS011;78;48.788;9.010;2023-04-05T10:50:03;24.60;;;9.00;;
179;SDS011;78;48.788;9.010;2023-04-05T10:52:33;24.97;;;9.33;;
179;SDS011;78;48.788;9.010;2023-04-05T10:55:00;24.17;;;9.73;;
179;SDS011;78;48.788;9.010;2023-04-05T10:57:28;24.37;;;8.60;;
179;SDS011;78;48.788;9.010;2023-04-05T10:59:55;22.83;;;8.70;;
179;SDS011;78;48.788;9.010;2023-04-05T11:02:21;24.33;;;9.73;;
179;SDS011;78;48.788;9.010;2023-04-05T11:04:52;23.57;;;8.83;;
179;SDS011;78;48.788;9.010;2023-04-05T11:07:20;22.90;;;8.80;;
179;SDS011;78;48.788;9.010;2023-04-05T11:12:15;23.47;;;8.80;;
179;SDS011;78;48.788;9.010;2023-04-05T11:14:41;22.50;;;9.20;;
179;SDS011;78;48.788;9.010;2023-04-05T11:17:24;21.40;;;8.87;;
179;SDS011;78;48.788;9.010;2023-04-05T11:19:50;22.67;;;9.00;;
179;SDS011;78;48.788;9.010;2023-04-05T11:22:24;24.20;;;9.00;;
179;SDS011;78;48.788;9.010;2023-04-05T11:24:51;23.13;;;9.33;;
179;SDS011;78;48.788;9.010;2023-04-05T11:27:28;21.67;;;8.53;;
179;SDS011;78;48.788;9.010;2023-04-05T11:29:55;23.07;;;8.00;;
179;SDS011;78;48.788;9.010;2023-04-05T11:32:21;23.60;;;8.23;;
179;SDS011;78;48.788;9.010;2023-04-05T11:35:04;21.63;;;7.77;;
179;SDS011;78;48.788;9.010;2023-04-05T11:40:27;25.23;;;8.60;;
179;SDS011;78;48.788;9.010;2023-04-05T11:42:57;23.63;;;9.10;;
179;SDS011;78;48.788;9.010;2023-04-05T11:45:23;22.30;;;8.10;;
179;SDS011;78;48.788;9.010;2023-04-05T11:47:50;23.93;;;8.27;;
179;SDS011;78;48.788;9.010;2023-04-05T11:50:16;21.47;;;9.00;;
179;SDS011;78;48.788;9.010;2023-04-05T11:52:42;22.60;;;8.93;;
179;SDS011;78;48.788;9.010;2023-04-05T11:55:08;24.27;;;9.10;;
179;SDS011;78;48.788;9.010;2023-04-05T11:57:35;24.07;;;8.90;;
179;SDS011;78;48.788;9.010;2023-04-05T12:00:02;24.67;;;9.30;;
179;SDS011;78;48.788;9.010;2023-04-05T12:02:32;24.17;;;9.60;;
179;SDS011;78;48.788;9.010;2023-04-05T12:04:58;23.00;;;8.67;;
179;SDS011;78;48.788;9.010;2023-04-05T12:07:26;24.17;;;9.53;;
179;SDS011;78;48.788;9.010;2023-04-05T12:12:49;27.90;;;8.90;;
179;SDS011;78;48.788;9.010;2023-04-05T12:15:17;24.50;;;9.80;;
179;SDS011;78;48.788;9.010;2023-04-05T12:17:44;21.60;;;9.10;;
179;SDS011;78;48.788;9.010;2023-04-05T12:20:11;29.47;;;9.43;;
179;SDS011;78;48.788;9.010;2023-04-05T12:22:37;25.63;;;9.93;;
179;SDS011;78;48.788;9.010;2023-04-05T12:25:04;23.50;;;9.10;;
179;SDS011;78;48.788;9.010;2023-04-05T12:27:30;24.23;;;9.47;;
179;SDS011;78;48.788;9.010;2023-04-05T12:32:45;23.40;;;9.00;;
179;SDS011;78;48.788;9.010;2023-04-05T12:35:14;21.30;;;8.10;;
179;SDS011;78;48.788;9.010;2023-04-05T12:37:41;24.13;;;9.03;;
179;SDS011;78;48.788;9.010;2023-04-05T12:40:07;24.37;;;9.67;;
179;SDS011;78;48.788;9.010;2023-04-05T12:42:34;21.83;;;8.37;;
179;SDS011;78;48.788;9.010;2023-04-05T12:45:01;23.33;;;9.07;;
179;SDS011;78;48.788;9.010;2023-04-05T12:47:28;21.97;;;8.10;;
179;SDS011;78;48.788;9.010;2023-04-05T12:49:54;25.43;;;9.53;;
179;SDS011;78;48.788;9.010;2023-04-05T12:52:20;22.93;;;8.30;;
179;SDS011;78;48.788;9.010;2023-04-05T12:54:52;23.10;;;8.83;;
179;SDS011;78;48.788;9.010;2023-04-05T12:57:26;25.30;;;10.03;;
179;SDS011;78;48.788;9.010;2023-04-05T12:59:52;24.07;;;9.80;;
179;SDS011;78;48.788;9.010;2023-04-05T13:02:18;24.67;;;9.07;;
179;SDS011;78;48.788;9.010;2023-04-05T13:04:44;24.40;;;9.30;;
179;SDS011;78;48.788;9.010;2023-04-05T13:07:10;21.40;;;8.07;;
179;SDS011;78;48.788;9.010;2023-04-05T13:09:36;28.30;;;9.13;;
179;SDS011;78;48.788;9.010;2023-04-05T13:12:02;22.53;;;8.97;;
179;SDS011;78;48.788;9.010;2023-04-05T13:14:28;22.10;;;8.40;;
179;SDS011;78;48.788;9.010;2023-04-05T13:16:54;23.10;;;8.60;;
179;SDS011;78;48.788;9.010;2023-04-05T13:19:20;25.13;;;9.10;;
179;SDS011;78;48.788;9.010;2023-04-05T13:21:46;23.00;;;8.90;;
179;SDS011;78;48.788;9.010;2023-04-05T13:24:12;24.93;;;9.73;;
179;SDS011;78;48.788;9.010;2023-04-05T13:26:38;29.13;;;9.40;;
179;SDS011;78;48.788;9.010;2023-04-05T13:29:04;23.23;;;8.93;;
179;SDS011;78;48.788;9.010;2023-04-05T13:31:31;24.23;;;8.77;;
179;SDS011;78;48.788;9.010;2023-04-05T13:33:57;24.70;;;9.20;;
179;SDS011;78;48.788;9.010;2023-04-05T13:36:23;21.77;;;8.50;;
179;SDS011;78;48.788;9.010;2023-04-05T13:38:50;25.30;;;9.00;;
179;SDS011;78;48.788;9.010;2023-04-05T13:41:16;24.47;;;8.83;;
179;SDS011;78;48.788;9.010;2023-04-05T13:43:42;25.93;;;8.70;;
179;SDS011;78;48.788;9.010;2023-04-05T13:46:08;23.83;;;9.60;;
179;SDS011;78;48.788;9.010;2023-04-05T13:48:34;23.40;;;9.20;;
179;SDS011;78;48.788;9.010;2023-04-05T13:51:00;26.63;;;10.07;;
179;SDS011;78;48.788;9.010;2023-04-05T13:53:27;24.33;;;9.03;;
179;SDS011;78;48.788;9.010;2023-04-05T13:55:54;24.27;;;8.40;;
179;SDS011;78;48.788;9.010;2023-04-05T13:58:20;24.90;;;8.80;;
179;SDS011;78;48.788;9.010;2023-04-05T14:00:46;27.07;;;11.10;;
179;SDS011;78;48.788;9.010;2023-04-05T14:03:11;23.17;;;9.13;;
179;SDS011;78;48.788;9.010;2023-04-05T14:05:37;21.70;;;8.23;;
179;SDS011;78;48.788;9.010;2023-04-05T14:08:03;24.17;;;8.93;;
179;SDS011;78;48.788;9.010;2023-04-05T14:10:30;23.70;;;8.80;;
179;SDS011;78;48.788;9.010;2023-04-05T14:12:56;28.27;;;9.70;;
179;SDS011;78;48.788;9.010;2023-04-05T14:15:22;29.53;;;10.10;;
179;SDS011;78;48.788;9.010;2023-04-05T14:17:49;21.83;;;8.30;;
179;SDS011;78;48.788;9.010;2023-04-05T14:20:15;22.23;;;8.73;;
179;SDS011;78;48.788;9.010;2023-04-05T14:22:41;25.87;;;9.00;;
179;SDS011;78;48.788;9.010;2023-04-05T14:25:07;23.50;;;9.30;;
179;SDS011;78;48.788;9.010;2023-04-05T14:27:33;23.57;;;9.23;;
179;SDS011;78;48.788;9.010;2023-04-05T14:30:05;22.97;;;8.00;;
179;SDS011;78;48.788;9.010;2023-04-05T14:32:31;23.27;;;8.37;;
179;SDS011;78;48.788;9.010;2023-04-05T14:34:57;22.20;;;8.20;;
179;SDS011;78;48.788;9.010;2023-04-05T14:37:23;22.33;;;8.80;;
179;SDS011;78;48.788;9.010;2023-04-05T14:39:49;21.53;;;8.30;;
179;SDS011;78;48.788;9.010;2023-04-05T14:42:15;22.10;;;8.03;;
179;SDS011;78;48.788;9.010;2023-04-05T14:44:41;20.37;;;7.77;;
179;SDS011;78;48.788;9.010;2023-04-05T14:47:07;20.20;;;7.27;;
179;SDS011;78;48.788;9.010;2023-04-05T14:49:33;20.73;;;8.13;;
179;SDS011;78;48.788;9.010;2023-04-05T14:52:01;23.20;;;8.90;;
179;SDS011;78;48.788;9.010;2023-04-05T14:54:27;23.83;;;9.10;;
179;SDS011;78;48.788;9.010;2023-04-05T14:56:53;20.40;;;7.93;;
179;SDS011;78;48.788;9.010;2023-04-05T14:59:19;22.10;;;8.40;;
179;SDS011;78;48.788;9.010;2023-04-05T15:01:45;24.13;;;8.37;;
179;SDS011;78;48.788;9.010;2023-04-05T15:04:11;22.40;;;7.80;;
179;SDS011;78;48.788;9.010;2023-04-05T15:06:37;25.40;;;8.07;;
179;SDS011;78;48.788;9.010;2023-04-05T15:09:03;26.80;;;8.97;;
179;SDS011;78;48.788;9.010;2023-04-05T15:11:29;23.10;;;8.90;;
179;SDS011;78;48.788;9.010;2023-04-05T15:13:58;21.87;;;8.10;;
179;SDS011;78;48.788;9.010;2023-04-05T15:16:24;22.40;;;8.20;;
179;SDS011;78;48.788;9.010;2023-04-05T15:18:50;23.23;;;8.33;;
179;SDS011;78;48.788;9.010;2023-04-05T15:21:17;23.50;;;8.50;;
179;SDS011;78;48.788;9.010;2023-04-05T15:23:44;20.83;;;7.63;;
179;SDS011;78;48.788;9.010;2023-04-05T15:26:10;26.23;;;8.57;;
179;SDS011;78;48.788;9.010;2023-04-05T15:28:36;21.00;;;7.60;;
179;SDS011;78;48.788;9.010;2023-04-05T15:31:02;27.67;;;8.53;;
179;SDS011;78;48.788;9.010;2023-04-05T15:33:28;25.83;;;8.00;;
179;SDS011;78;48.788;9.010;2023-04-05T15:35:55;22.87;;;7.70;;
179;SDS011;78;48.788;9.010;2023-04-05T15:38:21;22.03;;;8.80;;
179;SDS011;78;48.788;9.010;2023-04-05T15:40:47;23.57;;;8.47;;
179;SDS011;78;48.788;9.010;2023-04-05T15:43:17;25.70;;;8.30;;
179;SDS011;78;48.788;9.010;2023-04-05T15:45:43;21.30;;;8.07;;
179;SDS011;78;48.788;9.010;2023-04-05T15:48:09;21.13;;;8.40;;
179;SDS011;78;48.788;9.010;2023-04-05T15:50:37;22.00;;;8.10;;
179;SDS011;78;48.788;9.010;2023-04-05T15:53:03;22.27;;;8.20;;
179;SDS011;78;48.788;9.010;2023-04-05T15:55:29;22.33;;;7.73;;
179;SDS011;78;48.788;9.010;2023-04-05T15:57:57;25.43;;;10.30;;
179;SDS011;78;48.788;9.010;2023-04-05T16:00:23;24.10;;;9.50;;
179;SDS011;78;48.788;9.010;2023-04-05T16:02:50;25.73;;;10.00;;
179;SDS011;78;48.788;9.010;2023-04-05T16:05:17;23.33;;;9.43;;
179;SDS011;78;48.788;9.010;2023-04-05T16:07:43;23.70;;;9.90;;